Time;durP1;ratioP1;P1;durP2;ratioP2;P2;SDS_P1;SDS_P2;PMS_P1;PMS_P2;Temp;Humidity;BMP_temperature;BMP_pressure;BME280_temperature;BME280_humidity;BME280_pressure;Samples;Min_cycle;Max_cycle;Signal;HPM_P1;HPM_P2
2022/01/08 00:01:14;;;;;;;;;;;1.50;99.90;;;;;;4873968;29;19936;-83
2022/01/08 00:03:41;;;;;;;;;;;1.40;99.90;;;;;;4711626;29;19933;-84
2022/01/08 00:11:18;;;;;;;;;;;1.50;99.90;;;;;;5183114;27;19926;-80
2022/01/08 00:13:45;;;;;;;;;;;1.40;99.90;;;;;;5121713;28;19931;-83
2022/01/08 00:16:11;;;;;;;;;;;1.40;99.90;;;;;;5068631;28;19947;-85
2022/01/08 00:18:38;;;;;;;;;;;1.40;99.90;;;;;;5036056;28;19925;-83
2022/01/08 00:21:05;;;;;;;;;;;1.30;99.90;;;;;;4959086;28;19928;-82
2022/01/08 00:23:31;;;;;;;;;;;1.30;99.90;;;;;;4783353;29;19931;-84
2022/01/08 00:25:58;;;;;;;;;;;1.20;99.90;;;;;;4541850;30;19936;-84
2022/01/08 00:33:29;;;;;;;;;;;1.00;99.90;;;;;;5155420;27;19926;-80
2022/01/08 00:35:56;;;;;;;;;;;0.90;99.90;;;;;;5101119;27;19923;-84
2022/01/08 00:38:23;;;;;;;;;;;0.90;99.90;;;;;;5111039;27;19931;-82
2022/01/08 00:40:50;;;;;;;;;;;0.80;99.90;;;;;;5097322;28;19928;-81
2022/01/08 00:43:16;;;;;;;;;;;0.90;99.90;;;;;;5063051;28;19932;-83
2022/01/08 00:45:43;;;;;;;;;;;0.80;99.90;;;;;;4922960;28;19929;-84
2022/01/08 00:48:09;;;;;;;;;;;0.80;99.90;;;;;;4670704;29;19935;-82
2022/01/08 00:55:42;;;;;;;;;;;0.80;99.90;;;;;;5173962;27;19930;-80
2022/01/08 00:58:09;;;;;;;;;;;0.80;99.90;;;;;;5131752;27;19924;-81
2022/01/08 01:00:36;;;;;;;;;;;0.80;99.90;;;;;;5111291;28;19965;-83
2022/01/08 01:03:02;;;;;;;;;;;0.80;99.90;;;;;;5048888;28;19933;-82
2022/01/08 01:05:29;;;;;;;;;;;0.80;99.90;;;;;;4972015;28;19939;-83
2022/01/08 01:07:56;;;;;;;;;;;0.80;99.90;;;;;;4903443;29;19947;-81
2022/01/08 01:10:22;;;;;;;;;;;0.90;99.90;;;;;;4711600;29;19940;-82
2022/01/08 01:17:56;;;;;;;;;;;1.00;99.90;;;;;;5186064;27;19925;-82
2022/01/08 01:20:22;;;;;;;;;;;0.90;99.90;;;;;;5168680;27;19923;-79
2022/01/08 01:22:56;;;;;;;;;;;1.00;99.90;;;;;;5120277;28;19939;-79
2022/01/08 01:25:27;;;;;;;;;;;1.10;99.90;;;;;;5081410;28;19931;-81
2022/01/08 01:28:01;;;;;;;;;;;1.00;99.90;;;;;;5022438;28;19933;-80
2022/01/08 01:31:03;;;;;;;;;;;1.10;99.90;;;;;;4869115;28;19929;-84
2022/01/08 01:41:36;;;;;;;;;;;1.10;99.90;;;;;;5180211;27;19925;-79
2022/01/08 01:47:01;;;;;;;;;;;1.10;99.90;;;;;;5068884;28;19928;-82
2022/01/08 01:49:28;;;;;;;;;;;1.10;99.90;;;;;;4973270;28;19927;-81
2022/01/08 01:51:55;;;;;;;;;;;1.10;99.90;;;;;;4928490;28;19934;-79
2022/01/08 01:54:22;;;;;;;;;;;1.20;99.90;;;;;;4786433;29;19930;-81
2022/01/08 01:56:50;;;;;;;;;;;1.10;99.90;;;;;;4530242;30;19937;-84
2022/01/08 02:04:21;;;;;;;;;;;1.10;99.90;;;;;;5174244;27;19925;-82
2022/01/08 02:06:48;;;;;;;;;;;1.20;99.90;;;;;;5116276;27;19923;-83
2022/01/08 02:09:14;;;;;;;;;;;1.20;99.90;;;;;;5115158;27;19955;-83
2022/01/08 02:12:00;;;;;;;;;;;1.20;99.90;;;;;;5104584;28;19924;-81
2022/01/08 02:14:27;;;;;;;;;;;1.20;99.90;;;;;;5007172;28;19927;-84
2022/01/08 02:16:54;;;;;;;;;;;1.20;99.90;;;;;;4715656;29;19933;-82
2022/01/08 02:19:22;;;;;;;;;;;1.30;99.90;;;;;;4434238;31;19939;-82
2022/01/08 02:26:54;;;;;;;;;;;1.30;99.90;;;;;;5174364;27;19926;-83
2022/01/08 02:29:22;;;;;;;;;;;1.30;99.90;;;;;;5136868;27;19930;-82
2022/01/08 02:31:53;;;;;;;;;;;1.30;99.90;;;;;;5132131;27;19930;-86
2022/01/08 02:34:19;;;;;;;;;;;1.30;99.90;;;;;;5115290;27;19923;-83
2022/01/08 02:36:46;;;;;;;;;;;1.30;99.90;;;;;;5050408;28;19931;-84
2022/01/08 02:39:12;;;;;;;;;;;1.30;99.90;;;;;;4831940;29;19937;-83
2022/01/08 02:41:39;;;;;;;;;;;1.40;99.90;;;;;;4654878;30;19933;-81
2022/01/08 02:49:16;;;;;;;;;;;1.40;99.90;;;;;;5173211;27;19926;-80
2022/01/08 02:51:42;;;;;;;;;;;1.40;99.90;;;;;;5133870;27;19923;-81
2022/01/08 02:54:09;;;;;;;;;;;1.40;99.90;;;;;;5115744;27;19932;-84
2022/01/08 02:56:37;;;;;;;;;;;1.50;99.90;;;;;;5101160;28;19947;-80
2022/01/08 02:59:03;;;;;;;;;;;1.50;99.90;;;;;;5045578;28;19926;-85
2022/01/08 03:01:30;;;;;;;;;;;1.50;99.90;;;;;;4906093;28;19929;-84
2022/01/08 03:03:57;;;;;;;;;;;1.50;99.90;;;;;;4669129;29;19940;-82
2022/01/08 03:11:29;;;;;;;;;;;1.50;99.90;;;;;;5173464;27;19942;-79
2022/01/08 03:13:56;;;;;;;;;;;1.50;99.90;;;;;;5122987;27;19923;-79
2022/01/08 03:16:22;;;;;;;;;;;1.50;99.90;;;;;;5110678;28;19946;-82
2022/01/08 03:18:49;;;;;;;;;;;1.50;99.90;;;;;;5067609;28;19925;-80
2022/01/08 03:21:19;;;;;;;;;;;1.50;99.90;;;;;;4992928;28;19926;-81
2022/01/08 03:23:49;;;;;;;;;;;1.50;99.90;;;;;;4836116;29;19937;-82
2022/01/08 03:26:17;;;;;;;;;;;1.60;99.90;;;;;;4595913;30;19935;-83
2022/01/08 03:33:49;;;;;;;;;;;1.60;99.90;;;;;;5190471;27;19929;-83
2022/01/08 03:36:17;;;;;;;;;;;1.60;99.90;;;;;;5153638;27;19924;-78
2022/01/08 03:38:44;;;;;;;;;;;1.60;99.90;;;;;;5154150;27;19946;-80
2022/01/08 03:41:10;;;;;;;;;;;1.50;99.90;;;;;;5114313;28;19934;-80
2022/01/08 03:43:37;;;;;;;;;;;1.60;99.90;;;;;;5027677;28;19930;-79
2022/01/08 03:46:04;;;;;;;;;;;1.50;99.90;;;;;;4910773;29;19928;-78
2022/01/08 03:48:43;;;;;;;;;;;1.50;99.90;;;;;;4739342;29;19933;-84
2022/01/08 03:56:14;;;;;;;;;;;1.50;99.90;;;;;;5173888;27;19925;-83
2022/01/08 03:58:41;;;;;;;;;;;1.50;99.90;;;;;;5137070;27;19923;-83
2022/01/08 04:01:07;;;;;;;;;;;1.50;99.90;;;;;;5136416;27;19923;-80
2022/01/08 04:03:34;;;;;;;;;;;1.50;99.90;;;;;;5095032;28;19925;-79
2022/01/08 04:06:00;;;;;;;;;;;1.50;99.90;;;;;;5041614;28;19926;-80
2022/01/08 04:08:27;;;;;;;;;;;1.50;99.90;;;;;;4882915;29;19930;-81
2022/01/08 04:10:54;;;;;;;;;;;1.40;99.90;;;;;;4731137;29;19931;-83
2022/01/08 04:18:22;;;;;;;;;;;1.40;99.90;;;;;;5156747;27;19927;-81
2022/01/08 04:21:03;;;;;;;;;;;1.50;99.90;;;;;;5123272;27;19930;-82
2022/01/08 04:23:30;;;;;;;;;;;1.50;99.90;;;;;;5069466;28;19925;-81
2022/01/08 04:25:57;;;;;;;;;;;1.50;99.90;;;;;;5022190;28;19933;-82
2022/01/08 04:28:24;;;;;;;;;;;1.50;99.90;;;;;;4935561;28;19928;-83
2022/01/08 04:30:51;;;;;;;;;;;1.50;99.90;;;;;;4713578;29;19938;-80
2022/01/08 04:33:17;;;;;;;;;;;1.50;99.90;;;;;;4445664;31;19937;-79
2022/01/08 04:40:50;;;;;;;;;;;1.60;99.90;;;;;;5157584;27;19926;-81
2022/01/08 04:43:17;;;;;;;;;;;1.60;99.90;;;;;;5112015;28;19931;-81
2022/01/08 04:45:44;;;;;;;;;;;1.60;99.90;;;;;;5092381;28;19942;-81
2022/01/08 04:48:10;;;;;;;;;;;1.60;99.90;;;;;;5080546;28;19924;-81
2022/01/08 04:50:37;;;;;;;;;;;1.60;99.90;;;;;;5024277;28;19927;-80
2022/01/08 04:53:03;;;;;;;;;;;1.60;99.90;;;;;;4888036;29;20586;-82
2022/01/08 04:55:30;;;;;;;;;;;1.60;99.90;;;;;;4734873;29;19932;-84
2022/01/08 05:00:57;;;;;;;;;;;1.60;99.90;;;;;;5154639;27;19927;-84
2022/01/08 05:03:23;;;;;;;;;;;1.70;99.90;;;;;;5110933;27;19923;-82
2022/01/08 05:05:50;;;;;;;;;;;1.60;99.90;;;;;;5115416;27;19935;-81
2022/01/08 05:08:17;;;;;;;;;;;1.60;99.90;;;;;;5109870;27;19924;-81
2022/01/08 05:10:44;;;;;;;;;;;1.60;99.90;;;;;;5073907;28;19936;-82
2022/01/08 05:13:11;;;;;;;;;;;1.60;99.90;;;;;;4895432;28;19929;-80
2022/01/08 05:15:38;;;;;;;;;;;1.60;99.90;;;;;;4651976;29;19935;-82
2022/01/08 05:22:18;;;;;;;;;;;1.70;99.90;;;;;;5155692;27;19927;-83
2022/01/08 05:24:44;;;;;;;;;;;1.70;99.90;;;;;;5081511;28;19932;-83
2022/01/08 05:27:15;;;;;;;;;;;1.60;99.90;;;;;;5066996;28;19924;-80
2022/01/08 05:29:42;;;;;;;;;;;1.60;99.90;;;;;;4998540;28;19934;-80
2022/01/08 05:32:08;;;;;;;;;;;1.60;99.90;;;;;;4892247;28;19928;-80
2022/01/08 05:34:35;;;;;;;;;;;1.60;99.90;;;;;;4748805;29;19931;-79
2022/01/08 05:37:02;;;;;;;;;;;1.60;99.90;;;;;;4528193;30;19937;-82
2022/01/08 05:44:34;;;;;;;;;;;1.60;99.90;;;;;;5158113;27;19926;-82
2022/01/08 05:47:04;;;;;;;;;;;1.60;99.90;;;;;;5085248;28;19925;-78
2022/01/08 05:49:31;;;;;;;;;;;1.60;99.90;;;;;;5085066;28;19934;-79
2022/01/08 05:51:57;;;;;;;;;;;1.50;99.90;;;;;;5084533;28;19940;-79
2022/01/08 05:54:24;;;;;;;;;;;1.60;99.90;;;;;;5009104;28;19931;-80
2022/01/08 05:56:51;;;;;;;;;;;1.60;99.90;;;;;;4846347;29;19957;-77
2022/01/08 05:59:17;;;;;;;;;;;1.70;99.90;;;;;;4638732;30;19935;-78
2022/01/08 06:06:50;;;;;;;;;;;1.60;99.90;;;;;;5182593;27;19926;-83
2022/01/08 06:09:17;;;;;;;;;;;1.60;99.90;;;;;;5131439;27;19931;-85
2022/01/08 06:11:44;;;;;;;;;;;1.50;99.90;;;;;;5130702;27;19954;-79
2022/01/08 06:14:11;;;;;;;;;;;1.60;99.90;;;;;;5090260;28;19927;-86
2022/01/08 06:16:38;;;;;;;;;;;1.60;99.90;;;;;;5025467;28;19938;-82
2022/01/08 06:19:06;;;;;;;;;;;1.60;99.90;;;;;;4811521;29;19930;-82
2022/01/08 06:21:33;;;;;;;;;;;1.70;99.90;;;;;;4572387;30;19935;-88
2022/01/08 06:29:00;;;;;;;;;;;1.60;99.90;;;;;;5174328;27;19926;-81
2022/01/08 06:31:27;;;;;;;;;;;1.60;99.90;;;;;;5137800;27;19923;-84
2022/01/08 06:33:54;;;;;;;;;;;1.70;99.90;;;;;;5115590;27;19923;-80
2022/01/08 06:36:23;;;;;;;;;;;1.70;99.90;;;;;;5088609;28;19932;-80
2022/01/08 06:38:50;;;;;;;;;;;1.70;99.90;;;;;;4965715;28;19932;-82
2022/01/08 06:41:17;;;;;;;;;;;1.70;99.90;;;;;;4803331;29;20014;-81
2022/01/08 06:43:43;;;;;;;;;;;1.70;99.90;;;;;;4502719;30;19937;-85
2022/01/08 06:50:57;;;;;;;;;;;1.90;99.90;;;;;;5174292;27;19926;-82
2022/01/08 06:53:24;;;;;;;;;;;1.90;99.90;;;;;;5119917;27;19923;-84
2022/01/08 06:55:51;;;;;;;;;;;1.90;99.90;;;;;;5115634;27;19932;-84
2022/01/08 06:58:20;;;;;;;;;;;1.80;99.90;;;;;;5107620;28;19931;-84
2022/01/08 07:00:46;;;;;;;;;;;1.80;99.90;;;;;;5050279;28;19937;-84
2022/01/08 07:03:14;;;;;;;;;;;1.80;99.90;;;;;;4902914;28;19947;-82
2022/01/08 07:05:40;;;;;;;;;;;1.80;99.90;;;;;;4621594;30;19960;-83
2022/01/08 07:13:12;;;;;;;;;;;1.80;99.90;;;;;;5157869;27;19927;-84
2022/01/08 07:15:39;;;;;;;;;;;1.80;99.90;;;;;;5115779;28;19928;-84
2022/01/08 07:18:06;;;;;;;;;;;1.90;99.90;;;;;;5088501;28;19939;-82
2022/01/08 07:20:32;;;;;;;;;;;1.90;99.90;;;;;;5032869;28;19926;-85
2022/01/08 07:22:59;;;;;;;;;;;1.90;99.90;;;;;;4911225;28;19928;-85
2022/01/08 07:25:26;;;;;;;;;;;1.80;99.90;;;;;;4761786;29;19933;-85
2022/01/08 07:27:53;;;;;;;;;;;1.90;99.90;;;;;;4436669;31;19939;-81
2022/01/08 07:34:26;;;;;;;;;;;1.90;99.90;;;;;;5173853;27;19926;-81
2022/01/08 07:36:53;;;;;;;;;;;1.80;99.90;;;;;;5125257;27;19923;-83
2022/01/08 07:39:19;;;;;;;;;;;1.90;99.90;;;;;;5132118;27;19931;-82
2022/01/08 07:41:46;;;;;;;;;;;1.90;99.90;;;;;;5075244;28;19925;-81
2022/01/08 07:44:15;;;;;;;;;;;1.90;99.90;;;;;;4928998;28;19928;-84
2022/01/08 07:46:42;;;;;;;;;;;1.90;99.90;;;;;;4778131;29;19930;-86
2022/01/08 07:49:09;;;;;;;;;;;2.00;99.90;;;;;;4636472;30;19935;-83
2022/01/08 07:56:40;;;;;;;;;;;2.10;99.90;;;;;;5185877;27;19925;-80
2022/01/08 07:59:07;;;;;;;;;;;2.10;99.90;;;;;;5147718;27;19930;-79
2022/01/08 08:01:33;;;;;;;;;;;2.10;99.90;;;;;;5145699;27;19931;-80
2022/01/08 08:04:00;;;;;;;;;;;2.10;99.90;;;;;;5113589;28;19931;-81
2022/01/08 08:06:27;;;;;;;;;;;2.10;99.90;;;;;;5045238;28;19985;-81
2022/01/08 08:08:53;;;;;;;;;;;2.10;99.90;;;;;;4842595;29;19936;-80
2022/01/08 08:11:20;;;;;;;;;;;2.00;99.90;;;;;;4647484;30;19940;-80
2022/01/08 08:18:53;;;;;;;;;;;1.80;99.90;;;;;;5193167;27;19925;-80
2022/01/08 08:21:20;;;;;;;;;;;1.70;99.90;;;;;;5157496;27;19922;-79
2022/01/08 08:23:46;;;;;;;;;;;1.70;99.90;;;;;;5132808;27;19931;-80
2022/01/08 08:26:13;;;;;;;;;;;1.70;99.90;;;;;;5084671;28;19925;-81
2022/01/08 08:28:40;;;;;;;;;;;1.70;99.90;;;;;;5035049;28;19937;-82
2022/01/08 08:31:07;;;;;;;;;;;1.70;99.90;;;;;;4815685;29;19943;-80
2022/01/08 08:33:34;;;;;;;;;;;1.70;99.90;;;;;;4616224;30;19941;-82
2022/01/08 08:41:05;;;;;;;;;;;1.70;99.90;;;;;;5173405;27;19925;-81
2022/01/08 08:43:32;;;;;;;;;;;1.70;99.90;;;;;;5126966;28;19931;-83
2022/01/08 08:45:59;;;;;;;;;;;1.70;99.90;;;;;;5057087;28;19933;-81
2022/01/08 08:48:26;;;;;;;;;;;1.80;99.90;;;;;;5023556;28;19932;-80
2022/01/08 08:50:53;;;;;;;;;;;1.70;99.90;;;;;;4919608;28;19928;-84
2022/01/08 08:53:19;;;;;;;;;;;1.70;99.90;;;;;;4769462;29;19931;-82
2022/01/08 08:55:48;;;;;;;;;;;1.80;99.90;;;;;;4531678;30;19938;-84
2022/01/08 09:03:03;;;;;;;;;;;1.90;99.90;;;;;;5154426;27;19926;-82
2022/01/08 09:05:30;;;;;;;;;;;1.70;99.90;;;;;;5109722;28;19931;-84
2022/01/08 09:07:56;;;;;;;;;;;1.70;99.90;;;;;;5082190;28;19932;-82
2022/01/08 09:10:25;;;;;;;;;;;1.70;99.90;;;;;;5039652;28;19931;-84
2022/01/08 09:12:52;;;;;;;;;;;1.80;99.90;;;;;;4985141;28;19937;-80
2022/01/08 09:15:22;;;;;;;;;;;1.80;99.90;;;;;;4837779;29;19931;-82
2022/01/08 09:17:49;;;;;;;;;;;1.80;99.90;;;;;;4582143;30;19935;-80
2022/01/08 09:25:21;;;;;;;;;;;1.90;99.90;;;;;;5174190;27;19925;-81
2022/01/08 09:27:48;;;;;;;;;;;2.10;99.90;;;;;;5135724;27;19922;-83
2022/01/08 09:30:15;;;;;;;;;;;2.10;99.90;;;;;;5113467;28;19932;-82
2022/01/08 09:32:43;;;;;;;;;;;2.30;99.90;;;;;;5065179;28;19948;-83
2022/01/08 09:35:10;;;;;;;;;;;2.50;99.90;;;;;;4960484;28;19939;-84
2022/01/08 09:37:38;;;;;;;;;;;2.60;99.90;;;;;;4824998;29;19930;-83
2022/01/08 09:40:05;;;;;;;;;;;2.50;99.90;;;;;;4531278;30;19943;-82
2022/01/08 09:47:33;;;;;;;;;;;2.60;99.90;;;;;;5173598;27;19925;-81
2022/01/08 09:49:59;;;;;;;;;;;2.60;99.90;;;;;;5140071;27;19923;-84
2022/01/08 09:52:28;;;;;;;;;;;2.80;99.90;;;;;;5122080;27;19932;-82
2022/01/08 09:54:55;;;;;;;;;;;3.40;99.90;;;;;;5081052;28;20019;-81
2022/01/08 09:57:22;;;;;;;;;;;3.40;99.90;;;;;;4954218;28;19931;-81
2022/01/08 09:59:48;;;;;;;;;;;3.50;99.90;;;;;;4770106;29;19961;-81
2022/01/08 10:02:19;;;;;;;;;;;3.30;99.90;;;;;;4621937;30;19941;-81
2022/01/08 10:07:31;;;;;;;;;;;3.10;99.90;;;;;;5191058;27;19925;-83
2022/01/08 10:10:03;;;;;;;;;;;3.00;99.90;;;;;;5141075;27;19924;-81
2022/01/08 10:12:48;;;;;;;;;;;2.80;99.90;;;;;;5097124;28;19924;-83
2022/01/08 10:18:19;;;;;;;;;;;2.40;99.90;;;;;;4879641;29;19935;-80
2022/01/08 10:20:49;;;;;;;;;;;2.40;99.90;;;;;;4626689;30;19953;-82
2022/01/08 10:23:17;;;;;;;;;;;2.20;99.90;;;;;;4383885;31;19947;-81
2022/01/08 10:30:23;;;;;;;;;;;2.20;99.90;;;;;;5173382;27;19930;-83
2022/01/08 10:32:57;;;;;;;;;;;3.20;99.90;;;;;;5091506;28;19931;-80
2022/01/08 10:35:38;;;;;;;;;;;3.60;99.90;;;;;;5065546;28;20038;-81
2022/01/08 10:38:05;;;;;;;;;;;3.80;99.90;;;;;;5014207;28;19933;-80
2022/01/08 10:40:32;;;;;;;;;;;3.80;99.90;;;;;;4920926;28;19935;-81
2022/01/08 10:42:59;;;;;;;;;;;3.70;99.90;;;;;;4783067;29;19916;-79
2022/01/08 10:45:32;;;;;;;;;;;4.20;99.90;;;;;;4467594;30;19958;-81
2022/01/08 10:53:04;;;;;;;;;;;5.90;99.90;;;;;;5158873;27;19929;-82
2022/01/08 10:55:31;;;;;;;;;;;6.70;99.90;;;;;;5114338;27;19935;-86
2022/01/08 10:57:57;;;;;;;;;;;6.30;99.90;;;;;;5115736;27;19938;-82
2022/01/08 11:00:29;;;;;;;;;;;6.30;99.90;;;;;;5100302;28;19931;-81
2022/01/08 11:02:56;;;;;;;;;;;6.30;99.90;;;;;;5038598;28;19926;-82
2022/01/08 11:05:23;;;;;;;;;;;6.90;99.90;;;;;;4904956;29;19929;-81
2022/01/08 11:07:49;;;;;;;;;;;6.90;99.90;;;;;;4685740;29;19939;-81
2022/01/08 11:15:46;;;;;;;;;;;6.60;99.90;;;;;;5174163;27;19926;-82
2022/01/08 11:18:14;;;;;;;;;;;6.40;99.90;;;;;;5099992;27;19950;-81
2022/01/08 11:20:41;;;;;;;;;;;5.80;99.90;;;;;;5104119;28;19931;-82
2022/01/08 11:23:09;;;;;;;;;;;5.90;99.90;;;;;;5083719;28;19925;-82
2022/01/08 11:25:36;;;;;;;;;;;5.60;99.90;;;;;;4983014;28;19927;-82
2022/01/08 11:28:05;;;;;;;;;;;5.20;99.90;;;;;;4827892;29;19938;-82
2022/01/08 11:30:33;;;;;;;;;;;4.60;99.90;;;;;;4616006;30;19935;-81
2022/01/08 11:38:07;;;;;;;;;;;4.00;99.90;;;;;;5173559;27;19926;-82
2022/01/08 11:40:34;;;;;;;;;;;3.60;99.90;;;;;;5114460;27;19924;-81
2022/01/08 11:43:03;;;;;;;;;;;3.40;99.90;;;;;;5089367;28;19924;-84
2022/01/08 11:45:31;;;;;;;;;;;3.40;99.90;;;;;;5108533;28;19925;-81
2022/01/08 11:48:00;;;;;;;;;;;3.30;99.90;;;;;;5008519;28;19935;-85
2022/01/08 11:50:28;;;;;;;;;;;3.10;99.90;;;;;;4887751;29;19936;-82
2022/01/08 11:53:12;;;;;;;;;;;3.10;99.90;;;;;;4689594;29;19933;-84
2022/01/08 11:59:01;;;;;;;;;;;3.10;99.90;;;;;;5174185;27;19926;-83
2022/01/08 12:01:27;;;;;;;;;;;2.90;99.90;;;;;;5136633;27;19946;-81
2022/01/08 12:03:55;;;;;;;;;;;2.80;99.90;;;;;;5113943;27;19931;-80
2022/01/08 12:06:36;;;;;;;;;;;2.80;99.90;;;;;;5117609;27;19923;-84
2022/01/08 12:09:19;;;;;;;;;;;2.80;99.90;;;;;;5092098;28;19924;-81
2022/01/08 12:11:54;;;;;;;;;;;2.80;99.90;;;;;;4935038;28;19938;-83
2022/01/08 12:14:22;;;;;;;;;;;2.90;99.90;;;;;;4749850;29;19932;-81
2022/01/08 12:19:31;;;;;;;;;;;2.80;99.90;;;;;;5175932;27;19926;-84
2022/01/08 12:21:58;;;;;;;;;;;2.90;99.90;;;;;;5132150;27;19931;-81
2022/01/08 12:24:37;;;;;;;;;;;3.00;99.90;;;;;;5113354;27;19923;-84
2022/01/08 12:27:19;;;;;;;;;;;2.70;99.90;;;;;;5069900;28;19932;-81
2022/01/08 12:29:46;;;;;;;;;;;2.70;99.90;;;;;;5021232;28;19933;-83
2022/01/08 12:32:28;;;;;;;;;;;2.70;99.90;;;;;;4838080;28;19937;-82
2022/01/08 12:35:02;;;;;;;;;;;2.60;99.90;;;;;;4743314;29;19940;-82
2022/01/08 12:42:43;;;;;;;;;;;2.70;99.90;;;;;;5162878;27;19926;-83
2022/01/08 12:45:11;;;;;;;;;;;3.00;99.90;;;;;;5084991;28;19924;-80
2022/01/08 12:47:39;;;;;;;;;;;3.10;99.90;;;;;;5118340;28;19924;-82
2022/01/08 12:50:19;;;;;;;;;;;3.20;99.90;;;;;;5018989;28;19934;-83
2022/01/08 12:53:04;;;;;;;;;;;3.40;99.90;;;;;;4915888;29;19935;-82
2022/01/08 12:55:31;;;;;;;;;;;3.40;99.90;;;;;;4798689;29;19946;-82
2022/01/08 12:58:11;;;;;;;;;;;3.50;99.90;;;;;;4586734;30;19943;-80
2022/01/08 13:05:43;;;;;;;;;;;3.60;99.90;;;;;;5195512;27;19913;-80
2022/01/08 13:08:20;;;;;;;;;;;3.60;99.90;;;;;;5128616;27;19930;-82
2022/01/08 13:10:47;;;;;;;;;;;3.40;99.90;;;;;;5113444;28;19931;-82
2022/01/08 13:13:13;;;;;;;;;;;3.30;99.90;;;;;;5069594;28;19925;-84
2022/01/08 13:15:40;;;;;;;;;;;3.40;99.90;;;;;;4921397;28;19928;-82
2022/01/08 13:18:16;;;;;;;;;;;3.50;99.90;;;;;;4786006;29;19939;-81
2022/01/08 13:20:44;;;;;;;;;;;3.40;99.90;;;;;;4626871;30;19934;-83
2022/01/08 13:28:20;;;;;;;;;;;3.40;99.90;;;;;;5174003;27;19925;-81
2022/01/08 13:30:47;;;;;;;;;;;3.40;99.90;;;;;;5117653;27;19923;-80
2022/01/08 13:33:21;;;;;;;;;;;3.40;99.90;;;;;;5119423;27;19931;-82
2022/01/08 13:35:48;;;;;;;;;;;3.50;99.90;;;;;;5083707;28;19936;-81
2022/01/08 13:38:27;;;;;;;;;;;3.40;99.90;;;;;;4955432;28;19935;-82
2022/01/08 13:40:53;;;;;;;;;;;3.30;99.90;;;;;;4831303;29;19930;-85
2022/01/08 13:46:13;;;;;;;;;;;3.40;99.90;;;;;;5174914;27;19942;-89
2022/01/08 13:48:40;;;;;;;;;;;3.30;99.90;;;;;;5136136;27;19923;-83
2022/01/08 13:51:06;;;;;;;;;;;3.20;99.90;;;;;;5112544;27;19931;-85
2022/01/08 13:53:33;;;;;;;;;;;3.20;99.90;;;;;;5091609;28;19924;-81
2022/01/08 13:56:00;;;;;;;;;;;3.20;99.90;;;;;;4989934;28;19925;-82
2022/01/08 13:58:27;;;;;;;;;;;3.20;99.90;;;;;;4808340;29;19931;-84
2022/01/08 14:00:59;;;;;;;;;;;3.10;99.90;;;;;;4585053;30;19942;-83
2022/01/08 14:08:25;;;;;;;;;;;3.10;99.90;;;;;;5152899;27;19925;-81
2022/01/08 14:10:54;;;;;;;;;;;3.20;99.90;;;;;;5118159;27;19934;-83
2022/01/08 14:13:21;;;;;;;;;;;3.10;99.90;;;;;;5104523;27;19924;-81
2022/01/08 14:15:57;;;;;;;;;;;3.10;99.90;;;;;;5083528;28;19940;-82
2022/01/08 14:18:25;;;;;;;;;;;3.20;99.90;;;;;;4930781;28;19935;-80
2022/01/08 14:20:52;;;;;;;;;;;3.10;99.90;;;;;;4792858;29;19930;-80
2022/01/08 14:23:20;;;;;;;;;;;3.10;99.90;;;;;;4559716;30;19937;-81
2022/01/08 14:31:09;;;;;;;;;;;3.10;99.90;;;;;;5195042;27;19926;-84
2022/01/08 14:33:37;;;;;;;;;;;3.00;99.90;;;;;;5117721;27;19924;-82
2022/01/08 14:36:03;;;;;;;;;;;3.00;99.90;;;;;;5115312;27;19955;-83
2022/01/08 14:38:46;;;;;;;;;;;3.00;99.90;;;;;;5077176;28;19926;-84
2022/01/08 14:41:13;;;;;;;;;;;3.00;99.90;;;;;;4894813;28;19929;-83
2022/01/08 14:43:40;;;;;;;;;;;3.00;99.90;;;;;;4707382;29;19954;-85
2022/01/08 14:46:13;;;;;;;;;;;3.00;99.90;;;;;;4531051;30;19945;-81
2022/01/08 14:53:44;;;;;;;;;;;3.00;99.90;;;;;;5152731;27;19926;-84
2022/01/08 14:56:11;;;;;;;;;;;2.90;99.90;;;;;;5098271;27;19931;-83
2022/01/08 14:58:38;;;;;;;;;;;2.90;99.90;;;;;;5093643;28;19939;-85
2022/01/08 15:01:05;;;;;;;;;;;2.90;99.90;;;;;;5071209;28;19932;-84
2022/01/08 15:03:32;;;;;;;;;;;2.90;99.90;;;;;;4928069;28;19936;-82
2022/01/08 15:05:58;;;;;;;;;;;2.90;99.90;;;;;;4722290;30;19939;-83
2022/01/08 15:08:26;;;;;;;;;;;2.90;99.90;;;;;;4645363;30;19932;-84
2022/01/08 15:15:58;;;;;;;;;;;2.90;99.90;;;;;;5176913;27;19926;-85
2022/01/08 15:18:24;;;;;;;;;;;2.90;99.90;;;;;;5152209;27;19911;-81
2022/01/08 15:20:51;;;;;;;;;;;3.00;99.90;;;;;;5137494;27;19919;-83
2022/01/08 15:23:17;;;;;;;;;;;3.00;99.90;;;;;;5129057;28;19934;-82
2022/01/08 15:25:45;;;;;;;;;;;3.00;99.90;;;;;;5018135;28;19927;-82
2022/01/08 15:28:12;;;;;;;;;;;3.00;99.90;;;;;;4844159;29;19931;-82
2022/01/08 15:30:39;;;;;;;;;;;3.00;99.90;;;;;;4655232;30;19935;-83
2022/01/08 15:38:12;;;;;;;;;;;3.00;99.90;;;;;;5174076;27;19926;-84
2022/01/08 15:40:39;;;;;;;;;;;3.00;99.90;;;;;;5136012;27;19930;-82
2022/01/08 15:43:06;;;;;;;;;;;3.00;99.90;;;;;;5099842;28;19931;-84
2022/01/08 15:45:33;;;;;;;;;;;3.00;99.90;;;;;;5047406;28;19925;-85
2022/01/08 15:48:02;;;;;;;;;;;3.00;99.90;;;;;;4895742;29;19932;-82
2022/01/08 15:50:29;;;;;;;;;;;3.00;99.90;;;;;;4738618;30;19938;-85
2022/01/08 15:52:55;;;;;;;;;;;3.00;99.90;;;;;;4644412;30;19934;-84
2022/01/08 16:00:11;;;;;;;;;;;3.00;99.90;;;;;;5177293;27;19926;-82
2022/01/08 16:02:41;;;;;;;;;;;2.90;99.90;;;;;;5121135;27;19928;-79
2022/01/08 16:05:08;;;;;;;;;;;2.90;99.90;;;;;;5121422;28;19924;-81
2022/01/08 16:07:34;;;;;;;;;;;3.00;99.90;;;;;;5069239;28;19932;-82
2022/01/08 16:10:01;;;;;;;;;;;3.00;99.90;;;;;;4982670;28;19945;-84
2022/01/08 16:12:27;;;;;;;;;;;2.90;99.90;;;;;;4866972;29;19949;-84
2022/01/08 16:14:54;;;;;;;;;;;3.00;99.90;;;;;;4642911;30;19934;-82
2022/01/08 16:22:25;;;;;;;;;;;3.00;99.90;;;;;;5165978;27;19926;-82
2022/01/08 16:24:53;;;;;;;;;;;3.00;99.90;;;;;;5139960;27;19923;-81
2022/01/08 16:27:20;;;;;;;;;;;3.00;99.90;;;;;;5127553;27;19924;-81
2022/01/08 16:29:47;;;;;;;;;;;3.00;99.90;;;;;;5107069;28;19931;-83
2022/01/08 16:32:13;;;;;;;;;;;3.00;99.90;;;;;;5008107;28;19927;-83
2022/01/08 16:34:40;;;;;;;;;;;3.00;99.90;;;;;;4808054;29;19930;-84
2022/01/08 16:37:09;;;;;;;;;;;3.00;99.90;;;;;;4602652;30;19935;-83
2022/01/08 16:44:41;;;;;;;;;;;3.00;99.90;;;;;;5188973;27;19926;-81
2022/01/08 16:47:08;;;;;;;;;;;3.00;99.90;;;;;;5136894;27;19923;-84
2022/01/08 16:49:34;;;;;;;;;;;3.00;99.90;;;;;;5107613;27;19939;-79
2022/01/08 16:52:01;;;;;;;;;;;3.00;99.90;;;;;;5115470;28;19930;-81
2022/01/08 16:54:28;;;;;;;;;;;3.00;99.90;;;;;;5024347;28;19927;-80
2022/01/08 16:56:55;;;;;;;;;;;3.00;99.90;;;;;;4860108;29;19933;-80
2022/01/08 16:59:21;;;;;;;;;;;3.00;99.90;;;;;;4627529;29;19935;-80
2022/01/08 17:06:54;;;;;;;;;;;3.10;99.90;;;;;;5173196;27;19926;-85
2022/01/08 17:09:21;;;;;;;;;;;3.00;99.90;;;;;;5136814;27;19930;-84
2022/01/08 17:11:47;;;;;;;;;;;3.10;99.90;;;;;;5132673;27;19931;-83
2022/01/08 17:14:14;;;;;;;;;;;3.10;99.90;;;;;;5094151;28;19948;-81
2022/01/08 17:16:40;;;;;;;;;;;3.10;99.90;;;;;;5002365;28;19926;-81
2022/01/08 17:19:07;;;;;;;;;;;3.10;99.90;;;;;;4925497;28;19950;-82
2022/01/08 17:21:34;;;;;;;;;;;3.10;99.90;;;;;;4761242;29;19931;-80
2022/01/08 17:29:07;;;;;;;;;;;2.90;99.90;;;;;;5172891;27;19926;-85
2022/01/08 17:31:33;;;;;;;;;;;2.90;99.90;;;;;;5134472;27;19930;-81
2022/01/08 17:34:00;;;;;;;;;;;2.90;99.90;;;;;;5116841;27;19938;-81
2022/01/08 17:36:27;;;;;;;;;;;2.90;99.90;;;;;;5116790;28;19924;-83
2022/01/08 17:38:54;;;;;;;;;;;2.90;99.90;;;;;;5073000;28;19914;-82
2022/01/08 17:41:21;;;;;;;;;;;2.90;99.90;;;;;;4886311;29;19930;-88
2022/01/08 17:43:47;;;;;;;;;;;2.90;99.90;;;;;;4669064;30;19922;-87
2022/01/08 17:50:50;;;;;;;;;;;2.90;99.90;;;;;;5184621;27;19929;-84
2022/01/08 17:53:18;;;;;;;;;;;2.90;99.90;;;;;;5104894;27;19930;-82
2022/01/08 17:55:45;;;;;;;;;;;2.90;99.90;;;;;;5091719;28;19935;-81
2022/01/08 17:58:12;;;;;;;;;;;2.80;99.90;;;;;;5063688;28;19939;-83
2022/01/08 18:00:38;;;;;;;;;;;2.80;99.90;;;;;;5024690;28;19926;-84
2022/01/08 18:03:05;;;;;;;;;;;2.90;99.90;;;;;;4858665;29;19930;-84
2022/01/08 18:05:32;;;;;;;;;;;2.80;99.90;;;;;;4639249;30;19933;-83
2022/01/08 18:12:33;;;;;;;;;;;2.70;99.90;;;;;;5184414;27;19926;-79
2022/01/08 18:14:59;;;;;;;;;;;2.80;99.90;;;;;;5138388;27;19923;-81
2022/01/08 18:17:26;;;;;;;;;;;2.80;99.90;;;;;;5136690;27;19931;-83
2022/01/08 18:19:53;;;;;;;;;;;2.80;99.90;;;;;;5123773;28;19924;-85
2022/01/08 18:22:20;;;;;;;;;;;2.80;99.90;;;;;;5039593;28;19933;-83
2022/01/08 18:24:48;;;;;;;;;;;2.70;99.90;;;;;;4832699;28;19938;-84
2022/01/08 18:27:15;;;;;;;;;;;2.70;99.90;;;;;;4561392;30;19943;-83
2022/01/08 18:34:48;;;;;;;;;;;2.70;99.90;;;;;;5183982;27;19925;-81
2022/01/08 18:37:15;;;;;;;;;;;2.70;99.90;;;;;;5138132;27;19923;-81
2022/01/08 18:39:41;;;;;;;;;;;2.70;99.90;;;;;;5130667;27;19931;-84
2022/01/08 18:42:08;;;;;;;;;;;2.70;99.90;;;;;;5094538;28;19925;-85
2022/01/08 18:44:35;;;;;;;;;;;2.70;99.90;;;;;;5002939;28;20035;-84
2022/01/08 18:47:02;;;;;;;;;;;2.70;99.90;;;;;;4901932;29;19936;-83
2022/01/08 18:49:29;;;;;;;;;;;2.70;99.90;;;;;;4745610;29;19931;-82